sensor_id;sensor_type;location;lat;lon;timestamp;pressure;altitude;pressure_sealevel;temperature;humidity
76694;BME280;65625;52.136;5.424;2023-02-01T00:00:27;102039.78;;;3.90;86.92
76694;BME280;65625;52.136;5.424;2023-02-01T00:02:53;102036.91;;;3.98;86.94
76694;BME280;65625;52.136;5.424;2023-02-01T00:05:20;102037.53;;;4.06;86.74
76694;BME280;65625;52.136;5.424;2023-02-01T00:07:47;102028.59;;;4.09;86.48
76694;BME280;65625;52.136;5.424;2023-02-01T00:10:15;102026.66;;;4.14;86.89
76694;BME280;65625;52.136;5.424;2023-02-01T00:12:42;102034.38;;;4.23;86.53
76694;BME280;65625;52.136;5.424;2023-02-01T00:15:08;102030.78;;;4.24;86.47
76694;BME280;65625;52.136;5.424;2023-02-01T00:17:35;102043.03;;;4.31;86.15
76694;BME280;65625;52.136;5.424;2023-02-01T00:20:02;102043.63;;;4.40;85.47
76694;BME280;65625;52.136;5.424;2023-02-01T00:22:29;102030.03;;;4.48;85.91
76694;BME280;65625;52.136;5.424;2023-02-01T00:24:55;102029.28;;;4.43;85.73
76694;BME280;65625;52.136;5.424;2023-02-01T00:27:22;102034.53;;;4.46;85.70
76694;BME280;65625;52.136;5.424;2023-02-01T00:29:48;102018.59;;;4.43;85.92
76694;BME280;65625;52.136;5.424;2023-02-01T00:32:15;102023.84;;;4.46;85.69
76694;BME280;65625;52.136;5.424;2023-02-01T00:34:41;102028.09;;;4.53;85.39
76694;BME280;65625;52.136;5.424;2023-02-01T00:37:08;102016.22;;;4.61;85.20
76694;BME280;65625;52.136;5.424;2023-02-01T00:39:34;102011.59;;;4.66;85.79
76694;BME280;65625;52.136;5.424;2023-02-01T00:42:01;102022.13;;;4.71;84.86
76694;BME280;65625;52.136;5.424;2023-02-01T00:44:28;102015.09;;;4.68;85.61
76694;BME280;65625;52.136;5.424;2023-02-01T00:46:59;102029.31;;;4.70;85.49
76694;BME280;65625;52.136;5.424;2023-02-01T00:49:27;102023.19;;;4.67;85.54
76694;BME280;65625;52.136;5.424;2023-02-01T00:51:53;102020.25;;;4.74;85.45
76694;BME280;65625;52.136;5.424;2023-02-01T00:54:20;102020.50;;;4.67;85.33
76694;BME280;65625;52.136;5.424;2023-02-01T00:56:47;102019.41;;;4.72;84.72
76694;BME280;65625;52.136;5.424;2023-02-01T00:59:13;102024.69;;;4.75;84.86
76694;BME280;65625;52.136;5.424;2023-02-01T01:01:40;102027.44;;;4.72;84.46
76694;BME280;65625;52.136;5.424;2023-02-01T01:04:06;102028.38;;;4.71;85.15
76694;BME280;65625;52.136;5.424;2023-02-01T01:06:33;102027.41;;;4.74;84.77
76694;BME280;65625;52.136;5.424;2023-02-01T01:09:04;102016.66;;;4.75;85.00
76694;BME280;65625;52.136;5.424;2023-02-01T01:11:34;102020.78;;;4.85;85.10
76694;BME280;65625;52.136;5.424;2023-02-01T01:14:01;102006.25;;;4.94;84.52
76694;BME280;65625;52.136;5.424;2023-02-01T01:16:29;102000.56;;;5.03;84.25
76694;BME280;65625;52.136;5.424;2023-02-01T01:18:56;101992.66;;;5.00;84.15
76694;BME280;65625;52.136;5.424;2023-02-01T01:21:23;101999.66;;;5.04;83.78
76694;BME280;65625;52.136;5.424;2023-02-01T01:23:50;102016.59;;;5.03;83.85
76694;BME280;65625;52.136;5.424;2023-02-01T01:26:20;102005.19;;;4.98;83.72
76694;BME280;65625;52.136;5.424;2023-02-01T01:28:47;102005.53;;;4.87;83.58
76694;BME280;65625;52.136;5.424;2023-02-01T01:31:15;101998.72;;;4.79;84.10
76694;BME280;65625;52.136;5.424;2023-02-01T01:33:42;101999.47;;;4.82;84.61
76694;BME280;65625;52.136;5.424;2023-02-01T01:36:12;101994.91;;;4.86;84.40
76694;BME280;65625;52.136;5.424;2023-02-01T01:38:40;101993.22;;;4.83;84.01
76694;BME280;65625;52.136;5.424;2023-02-01T01:41:08;101994.16;;;4.81;84.02
76694;BME280;65625;52.136;5.424;2023-02-01T01:44:05;101994.72;;;4.92;83.49
76694;BME280;65625;52.136;5.424;2023-02-01T01:46:37;101999.72;;;5.01;83.77
76694;BME280;65625;52.136;5.424;2023-02-01T01:49:18;102006.78;;;5.03;82.64
76694;BME280;65625;52.136;5.424;2023-02-01T01:51:53;101984.34;;;5.07;83.91
76694;BME280;65625;52.136;5.424;2023-02-01T01:54:24;101992.22;;;5.12;83.24
76694;BME280;65625;52.136;5.424;2023-02-01T01:56:57;101988.44;;;5.17;82.92
76694;BME280;65625;52.136;5.424;2023-02-01T01:59:25;101982.97;;;5.22;82.42
76694;BME280;65625;52.136;5.424;2023-02-01T02:01:52;101978.84;;;5.37;82.11
76694;BME280;65625;52.136;5.424;2023-02-01T02:04:19;101966.88;;;5.47;80.75
76694;BME280;65625;52.136;5.424;2023-02-01T02:06:57;101979.38;;;5.46;82.30
76694;BME280;65625;52.136;5.424;2023-02-01T02:09:26;101970.53;;;5.44;82.38
76694;BME280;65625;52.136;5.424;2023-02-01T02:11:52;101963.63;;;5.39;81.89
76694;BME280;65625;52.136;5.424;2023-02-01T02:14:21;101963.00;;;5.55;81.07
76694;BME280;65625;52.136;5.424;2023-02-01T02:17:16;101962.34;;;5.49;81.85
76694;BME280;65625;52.136;5.424;2023-02-01T02:25:59;101957.91;;;5.48;82.73
76694;BME280;65625;52.136;5.424;2023-02-01T02:29:03;101950.75;;;5.48;82.92
76694;BME280;65625;52.136;5.424;2023-02-01T02:31:49;101948.91;;;5.50;82.44
76694;BME280;65625;52.136;5.424;2023-02-01T02:35:02;101950.53;;;5.54;82.86
76694;BME280;65625;52.136;5.424;2023-02-01T02:37:40;101940.44;;;5.62;82.28
76694;BME280;65625;52.136;5.424;2023-02-01T02:40:46;101942.28;;;5.60;83.14
76694;BME280;65625;52.136;5.424;2023-02-01T02:43:23;101937.63;;;5.65;82.24
76694;BME280;65625;52.136;5.424;2023-02-01T02:46:27;101932.84;;;5.73;82.88
76694;BME280;65625;52.136;5.424;2023-02-01T02:49:29;101935.34;;;5.78;82.66
76694;BME280;65625;52.136;5.424;2023-02-01T02:52:09;101942.59;;;5.76;82.03
76694;BME280;65625;52.136;5.424;2023-02-01T02:54:58;101929.81;;;5.84;82.16
76694;BME280;65625;52.136;5.424;2023-02-01T02:57:38;101919.84;;;5.87;81.97
76694;BME280;65625;52.136;5.424;2023-02-01T03:00:29;101923.22;;;5.92;81.36
76694;BME280;65625;52.136;5.424;2023-02-01T03:03:16;101918.59;;;5.96;81.95
76694;BME280;65625;52.136;5.424;2023-02-01T03:06:02;101899.03;;;5.94;82.25
76694;BME280;65625;52.136;5.424;2023-02-01T03:08:30;101907.44;;;5.85;82.00
76694;BME280;65625;52.136;5.424;2023-02-01T03:11:03;101912.13;;;5.78;81.66
76694;BME280;65625;52.136;5.424;2023-02-01T03:16:02;101904.41;;;5.71;82.05
76694;BME280;65625;52.136;5.424;2023-02-01T03:18:33;101910.72;;;5.68;82.48
76694;BME280;65625;52.136;5.424;2023-02-01T03:21:02;101912.06;;;5.57;82.64
76694;BME280;65625;52.136;5.424;2023-02-01T03:23:35;101906.13;;;5.49;82.94
76694;BME280;65625;52.136;5.424;2023-02-01T03:26:04;101903.84;;;5.38;82.76
76694;BME280;65625;52.136;5.424;2023-02-01T03:28:32;101907.72;;;5.30;82.32
76694;BME280;65625;52.136;5.424;2023-02-01T03:31:01;101904.41;;;5.23;82.30
76694;BME280;65625;52.136;5.424;2023-02-01T03:33:29;101901.91;;;5.18;82.83
76694;BME280;65625;52.136;5.424;2023-02-01T03:38:58;101909.59;;;5.03;83.77
76694;BME280;65625;52.136;5.424;2023-02-01T03:41:42;101914.28;;;5.21;83.27
76694;BME280;65625;52.136;5.424;2023-02-01T03:44:12;101913.50;;;5.17;82.86
76694;BME280;65625;52.136;5.424;2023-02-01T03:46:49;101924.16;;;5.19;83.33
76694;BME280;65625;52.136;5.424;2023-02-01T03:49:34;101910.69;;;5.22;83.39
76694;BME280;65625;52.136;5.424;2023-02-01T03:52:05;101915.22;;;5.20;82.67
76694;BME280;65625;52.136;5.424;2023-02-01T03:54:34;101930.28;;;5.22;83.02
76694;BME280;65625;52.136;5.424;2023-02-01T03:57:14;101926.94;;;5.16;82.89
76694;BME280;65625;52.136;5.424;2023-02-01T03:59:45;101923.84;;;5.28;82.77
76694;BME280;65625;52.136;5.424;2023-02-01T04:02:12;101913.91;;;5.32;82.75
76694;BME280;65625;52.136;5.424;2023-02-01T04:04:38;101916.53;;;5.33;83.13
76694;BME280;65625;52.136;5.424;2023-02-01T04:07:05;101918.97;;;5.39;82.77
76694;BME280;65625;52.136;5.424;2023-02-01T04:09:32;101920.44;;;5.48;82.83
76694;BME280;65625;52.136;5.424;2023-02-01T04:11:58;101906.78;;;5.55;82.54
76694;BME280;65625;52.136;5.424;2023-02-01T04:14:25;101910.34;;;5.56;82.01
76694;BME280;65625;52.136;5.424;2023-02-01T04:16:52;101909.16;;;5.63;82.61
76694;BME280;65625;52.136;5.424;2023-02-01T04:19:18;101908.16;;;5.65;82.04
76694;BME280;65625;52.136;5.424;2023-02-01T04:21:45;101916.84;;;5.72;81.67
76694;BME280;65625;52.136;5.424;2023-02-01T04:24:11;101915.84;;;5.74;81.98
76694;BME280;65625;52.136;5.424;2023-02-01T04:26:38;101936.16;;;5.80;81.88
76694;BME280;65625;52.136;5.424;2023-02-01T04:29:04;101929.88;;;5.82;81.23
76694;BME280;65625;52.136;5.424;2023-02-01T04:31:31;101929.00;;;5.80;81.16
76694;BME280;65625;52.136;5.424;2023-02-01T04:33:57;101932.47;;;5.84;81.44
76694;BME280;65625;52.136;5.424;2023-02-01T04:36:24;101920.97;;;5.80;81.40
76694;BME280;65625;52.136;5.424;2023-02-01T04:38:50;101920.16;;;5.78;81.56
76694;BME280;65625;52.136;5.424;2023-02-01T04:41:17;101921.31;;;5.71;81.59
76694;BME280;65625;52.136;5.424;2023-02-01T04:43:48;101920.63;;;5.66;81.96
76694;BME280;65625;52.136;5.424;2023-02-01T04:46:15;101916.78;;;5.50;81.74
76694;BME280;65625;52.136;5.424;2023-02-01T04:48:42;101929.53;;;5.44;82.35
76694;BME280;65625;52.136;5.424;2023-02-01T04:51:09;101914.50;;;5.40;82.68
76694;BME280;65625;52.136;5.424;2023-02-01T04:53:36;101909.53;;;5.29;83.26
76694;BME280;65625;52.136;5.424;2023-02-01T04:56:03;101904.41;;;5.23;83.08
76694;BME280;65625;52.136;5.424;2023-02-01T04:58:29;101906.38;;;5.18;83.17
76694;BME280;65625;52.136;5.424;2023-02-01T05:00:56;101901.19;;;5.13;83.17
76694;BME280;65625;52.136;5.424;2023-02-01T05:03:22;101895.13;;;5.08;84.27
76694;BME280;65625;52.136;5.424;2023-02-01T05:05:49;101909.53;;;5.04;84.62
76694;BME280;65625;52.136;5.424;2023-02-01T05:08:15;101906.53;;;5.13;84.22
76694;BME280;65625;52.136;5.424;2023-02-01T05:10:42;101915.22;;;5.20;84.51
76694;BME280;65625;52.136;5.424;2023-02-01T05:13:10;101904.22;;;5.28;83.46
76694;BME280;65625;52.136;5.424;2023-02-01T05:15:55;101902.16;;;5.36;82.87
76694;BME280;65625;52.136;5.424;2023-02-01T05:18:21;101896.13;;;5.29;83.23
76694;BME280;65625;52.136;5.424;2023-02-01T05:20:48;101907.25;;;5.18;83.80
76694;BME280;65625;52.136;5.424;2023-02-01T05:23:14;101903.75;;;5.16;84.05
76694;BME280;65625;52.136;5.424;2023-02-01T05:25:41;101896.19;;;5.28;83.93
76694;BME280;65625;52.136;5.424;2023-02-01T05:28:07;101903.97;;;5.35;83.31
76694;BME280;65625;52.136;5.424;2023-02-01T05:30:34;101910.72;;;5.45;83.11
76694;BME280;65625;52.136;5.424;2023-02-01T05:33:07;101911.38;;;5.52;83.86
76694;BME280;65625;52.136;5.424;2023-02-01T05:35:34;101915.63;;;5.57;83.87
76694;BME280;65625;52.136;5.424;2023-02-01T05:38:00;101907.47;;;5.60;83.68
76694;BME280;65625;52.136;5.424;2023-02-01T05:40:27;101914.69;;;5.58;82.52
76694;BME280;65625;52.136;5.424;2023-02-01T05:42:53;101909.16;;;5.63;82.49
76694;BME280;65625;52.136;5.424;2023-02-01T05:45:19;101910.91;;;5.64;82.27
76694;BME280;65625;52.136;5.424;2023-02-01T05:47:46;101919.00;;;5.62;82.68
76694;BME280;65625;52.136;5.424;2023-02-01T05:50:12;101920.69;;;5.65;82.88
76694;BME280;65625;52.136;5.424;2023-02-01T05:52:39;101929.59;;;5.65;82.41
76694;BME280;65625;52.136;5.424;2023-02-01T05:55:06;101917.13;;;5.64;82.17
76694;BME280;65625;52.136;5.424;2023-02-01T05:57:33;101917.03;;;5.67;83.18
76694;BME280;65625;52.136;5.424;2023-02-01T05:59:59;101914.03;;;5.75;82.03
76694;BME280;65625;52.136;5.424;2023-02-01T06:02:26;101924.69;;;5.76;82.22
76694;BME280;65625;52.136;5.424;2023-02-01T06:04:53;101913.78;;;5.81;82.10
76694;BME280;65625;52.136;5.424;2023-02-01T06:07:20;101925.31;;;5.84;82.76
76694;BME280;65625;52.136;5.424;2023-02-01T06:09:48;101925.44;;;5.80;82.27
76694;BME280;65625;52.136;5.424;2023-02-01T06:12:14;101928.03;;;5.83;82.88
76694;BME280;65625;52.136;5.424;2023-02-01T06:14:41;101924.50;;;5.81;82.61
76694;BME280;65625;52.136;5.424;2023-02-01T06:17:09;101920.88;;;5.83;82.97
76694;BME280;65625;52.136;5.424;2023-02-01T06:19:35;101912.94;;;5.80;82.66
76694;BME280;65625;52.136;5.424;2023-02-01T06:22:02;101919.09;;;5.84;83.22
76694;BME280;65625;52.136;5.424;2023-02-01T06:24:32;101919.22;;;5.79;83.41
76694;BME280;65625;52.136;5.424;2023-02-01T06:26:58;101921.16;;;5.76;82.93
76694;BME280;65625;52.136;5.424;2023-02-01T06:29:25;101920.28;;;5.75;83.05
76694;BME280;65625;52.136;5.424;2023-02-01T06:31:52;101925.97;;;5.66;83.31
76694;BME280;65625;52.136;5.424;2023-02-01T06:34:19;101921.91;;;5.56;83.45
76694;BME280;65625;52.136;5.424;2023-02-01T06:36:47;101931.38;;;5.42;83.57
76694;BME280;65625;52.136;5.424;2023-02-01T06:39:14;101934.31;;;5.34;84.28
76694;BME280;65625;52.136;5.424;2023-02-01T06:41:45;101941.63;;;5.31;84.65
76694;BME280;65625;52.136;5.424;2023-02-01T06:44:11;101939.78;;;5.31;84.77
76694;BME280;65625;52.136;5.424;2023-02-01T06:46:38;101949.72;;;5.28;84.47
76694;BME280;65625;52.136;5.424;2023-02-01T06:49:04;101941.88;;;5.23;84.50
76694;BME280;65625;52.136;5.424;2023-02-01T06:51:31;101945.50;;;5.22;85.17
76694;BME280;65625;52.136;5.424;2023-02-01T06:53:57;101943.94;;;5.15;85.40
76694;BME280;65625;52.136;5.424;2023-02-01T06:56:24;101943.06;;;5.14;85.36
76694;BME280;65625;52.136;5.424;2023-02-01T06:58:51;101944.91;;;5.12;84.86
76694;BME280;65625;52.136;5.424;2023-02-01T07:01:18;101929.56;;;5.17;85.73
76694;BME280;65625;52.136;5.424;2023-02-01T07:03:49;101939.19;;;5.23;84.64
76694;BME280;65625;52.136;5.424;2023-02-01T07:06:17;101939.06;;;5.26;84.80
76694;BME280;65625;52.136;5.424;2023-02-01T07:08:44;101928.50;;;5.23;84.80
76694;BME280;65625;52.136;5.424;2023-02-01T07:11:12;101936.63;;;5.20;84.93
76694;BME280;65625;52.136;5.424;2023-02-01T07:13:40;101934.66;;;5.25;85.71
76694;BME280;65625;52.136;5.424;2023-02-01T07:16:10;101928.88;;;5.37;85.45
76694;BME280;65625;52.136;5.424;2023-02-01T07:18:38;101940.38;;;5.39;84.86
76694;BME280;65625;52.136;5.424;2023-02-01T07:21:06;101929.72;;;5.38;85.11
76694;BME280;65625;52.136;5.424;2023-02-01T07:23:33;101934.06;;;5.42;85.18
76694;BME280;65625;52.136;5.424;2023-02-01T07:26:03;101935.00;;;5.41;85.46
76694;BME280;65625;52.136;5.424;2023-02-01T07:28:32;101948.41;;;5.39;85.11
76694;BME280;65625;52.136;5.424;2023-02-01T07:31:18;101929.59;;;5.42;85.02
76694;BME280;65625;52.136;5.424;2023-02-01T07:33:50;101934.94;;;5.42;84.89
76694;BME280;65625;52.136;5.424;2023-02-01T07:36:18;101936.84;;;5.39;84.71
76694;BME280;65625;52.136;5.424;2023-02-01T07:38:45;101949.47;;;5.35;85.28
76694;BME280;65625;52.136;5.424;2023-02-01T07:41:14;101938.69;;;5.37;84.95
76694;BME280;65625;52.136;5.424;2023-02-01T07:43:40;101934.06;;;5.42;84.76
76694;BME280;65625;52.136;5.424;2023-02-01T07:46:07;101935.59;;;5.49;84.28
76694;BME280;65625;52.136;5.424;2023-02-01T07:48:35;101929.47;;;5.45;84.08
76694;BME280;65625;52.136;5.424;2023-02-01T07:51:03;101939.34;;;5.43;84.26
76694;BME280;65625;52.136;5.424;2023-02-01T07:53:31;101929.53;;;5.44;83.80
76694;BME280;65625;52.136;5.424;2023-02-01T07:55:58;101931.97;;;5.50;84.18
76694;BME280;65625;52.136;5.424;2023-02-01T07:58:25;101943.38;;;5.55;83.84
76694;BME280;65625;52.136;5.424;2023-02-01T08:00:52;101938.84;;;5.57;83.71
76694;BME280;65625;52.136;5.424;2023-02-01T08:03:38;101944.25;;;5.55;84.03
76694;BME280;65625;52.136;5.424;2023-02-01T08:06:05;101948.63;;;5.58;84.47
76694;BME280;65625;52.136;5.424;2023-02-01T08:08:32;101955.63;;;5.62;83.94
76694;BME280;65625;52.136;5.424;2023-02-01T08:11:02;101958.00;;;5.69;83.08
76694;BME280;65625;52.136;5.424;2023-02-01T08:13:29;101959.00;;;5.67;83.82
76694;BME280;65625;52.136;5.424;2023-02-01T08:16:04;101953.91;;;5.59;83.94
76694;BME280;65625;52.136;5.424;2023-02-01T08:18:32;101950.06;;;5.66;83.66
76694;BME280;65625;52.136;5.424;2023-02-01T08:21:09;101959.06;;;5.65;83.37
76694;BME280;65625;52.136;5.424;2023-02-01T08:23:37;101956.00;;;5.74;83.73
76694;BME280;65625;52.136;5.424;2023-02-01T08:28:32;101947.31;;;6.15;82.72
76694;BME280;65625;52.136;5.424;2023-02-01T08:30:58;101940.94;;;6.18;82.38
76694;BME280;65625;52.136;5.424;2023-02-01T08:33:25;101939.00;;;6.21;82.40
76694;BME280;65625;52.136;5.424;2023-02-01T08:35:51;101935.78;;;6.35;82.01
76694;BME280;65625;52.136;5.424;2023-02-01T08:38:18;101922.44;;;6.33;81.72
76694;BME280;65625;52.136;5.424;2023-02-01T08:40:44;101939.78;;;6.25;82.20
76694;BME280;65625;52.136;5.424;2023-02-01T08:43:12;101949.50;;;6.27;81.15
76694;BME280;65625;52.136;5.424;2023-02-01T08:45:39;101933.97;;;6.35;81.48
76694;BME280;65625;52.136;5.424;2023-02-01T08:48:06;101925.53;;;6.44;80.87
76694;BME280;65625;52.136;5.424;2023-02-01T08:50:32;101921.47;;;6.56;80.04
76694;BME280;65625;52.136;5.424;2023-02-01T08:52:59;101939.47;;;6.76;80.02
76694;BME280;65625;52.136;5.424;2023-02-01T08:55:25;101920.03;;;6.91;80.04
76694;BME280;65625;52.136;5.424;2023-02-01T08:57:52;101924.16;;;6.98;79.92
76694;BME280;65625;52.136;5.424;2023-02-01T09:00:19;101931.38;;;6.97;79.47
76694;BME280;65625;52.136;5.424;2023-02-01T09:02:46;101920.09;;;6.89;79.87
76694;BME280;65625;52.136;5.424;2023-02-01T09:05:13;101925.38;;;6.91;79.41
76694;BME280;65625;52.136;5.424;2023-02-01T09:07:42;101922.88;;;6.86;79.25
76694;BME280;65625;52.136;5.424;2023-02-01T09:10:09;101923.75;;;6.87;79.46
76694;BME280;65625;52.136;5.424;2023-02-01T09:12:36;101907.66;;;7.07;79.25
76694;BME280;65625;52.136;5.424;2023-02-01T09:15:03;101905.84;;;7.47;78.91
76694;BME280;65625;52.136;5.424;2023-02-01T09:17:30;101924.41;;;7.91;77.22
76694;BME280;65625;52.136;5.424;2023-02-01T09:19:56;101908.47;;;8.05;76.00
76694;BME280;65625;52.136;5.424;2023-02-01T09:22:23;101906.34;;;8.11;75.42
76694;BME280;65625;52.136;5.424;2023-02-01T09:24:49;101901.59;;;8.18;75.52
76694;BME280;65625;52.136;5.424;2023-02-01T09:27:17;101907.19;;;8.32;75.80
76694;BME280;65625;52.136;5.424;2023-02-01T09:29:43;101910.56;;;8.54;74.32
76694;BME280;65625;52.136;5.424;2023-02-01T09:32:10;101914.88;;;8.39;74.32
76694;BME280;65625;52.136;5.424;2023-02-01T09:34:37;101919.75;;;7.94;74.43
76694;BME280;65625;52.136;5.424;2023-02-01T09:37:03;101928.03;;;7.71;75.10
76694;BME280;65625;52.136;5.424;2023-02-01T09:39:30;101934.88;;;7.58;76.23
76694;BME280;65625;52.136;5.424;2023-02-01T09:42:06;101936.03;;;7.52;76.36
76694;BME280;65625;52.136;5.424;2023-02-01T09:47:17;101928.69;;;7.37;76.99
76694;BME280;65625;52.136;5.424;2023-02-01T09:49:55;101918.84;;;7.36;76.44
76694;BME280;65625;52.136;5.424;2023-02-01T09:52:32;101913.47;;;7.36;76.37
76694;BME280;65625;52.136;5.424;2023-02-01T09:55:05;101910.06;;;7.33;76.86
76694;BME280;65625;52.136;5.424;2023-02-01T09:58:01;101905.06;;;7.25;77.10
76694;BME280;65625;52.136;5.424;2023-02-01T10:00:30;101906.25;;;7.18;77.39
76694;BME280;65625;52.136;5.424;2023-02-01T10:02:59;101911.91;;;7.12;77.79
76694;BME280;65625;52.136;5.424;2023-02-01T10:12:13;101899.53;;;7.08;78.64
76694;BME280;65625;52.136;5.424;2023-02-01T10:14:43;101904.09;;;7.06;79.20
76694;BME280;65625;52.136;5.424;2023-02-01T10:17:25;101899.09;;;6.99;79.87
76694;BME280;65625;52.136;5.424;2023-02-01T10:22:45;101916.91;;;6.80;81.33
76694;BME280;65625;52.136;5.424;2023-02-01T10:25:44;101919.19;;;6.69;83.02
76694;BME280;65625;52.136;5.424;2023-02-01T10:28:18;101920.63;;;6.56;84.82
76694;BME280;65625;52.136;5.424;2023-02-01T10:30:48;101920.13;;;6.46;85.97
76694;BME280;65625;52.136;5.424;2023-02-01T10:33:24;101916.66;;;6.44;85.78
76694;BME280;65625;52.136;5.424;2023-02-01T10:36:13;101930.84;;;6.46;86.51
76694;BME280;65625;52.136;5.424;2023-02-01T10:38:40;101919.19;;;6.47;86.99
76694;BME280;65625;52.136;5.424;2023-02-01T10:41:16;101907.53;;;6.48;85.72
76694;BME280;65625;52.136;5.424;2023-02-01T10:43:45;101904.84;;;6.48;85.70
76694;BME280;65625;52.136;5.424;2023-02-01T10:46:13;101909.28;;;6.49;86.46
76694;BME280;65625;52.136;5.424;2023-02-01T10:48:40;101901.97;;;6.53;86.29
76694;BME280;65625;52.136;5.424;2023-02-01T10:51:23;101901.59;;;6.62;85.27
76694;BME280;65625;52.136;5.424;2023-02-01T10:54:11;101899.59;;;6.67;84.38
76694;BME280;65625;52.136;5.424;2023-02-01T10:56:43;101883.28;;;6.71;84.83
76694;BME280;65625;52.136;5.424;2023-02-01T10:59:20;101892.75;;;6.80;83.90
76694;BME280;65625;52.136;5.424;2023-02-01T11:01:50;101878.88;;;6.90;83.89
76694;BME280;65625;52.136;5.424;2023-02-01T11:04:26;101890.44;;;7.12;82.78
76694;BME280;65625;52.136;5.424;2023-02-01T11:07:07;101881.53;;;7.30;81.65
76694;BME280;65625;52.136;5.424;2023-02-01T11:09:39;101878.66;;;7.35;79.93
76694;BME280;65625;52.136;5.424;2023-02-01T11:12:24;101883.50;;;7.27;80.31
76694;BME280;65625;52.136;5.424;2023-02-01T11:14:58;101875.66;;;7.22;80.59
76694;BME280;65625;52.136;5.424;2023-02-01T11:17:32;101887.97;;;7.26;80.63
76694;BME280;65625;52.136;5.424;2023-02-01T11:20:18;101882.81;;;7.22;82.11
76694;BME280;65625;52.136;5.424;2023-02-01T11:22:53;101861.97;;;7.08;82.35
76694;BME280;65625;52.136;5.424;2023-02-01T11:25:21;101877.94;;;7.11;83.11
76694;BME280;65625;52.136;5.424;2023-02-01T11:27:50;101863.44;;;7.15;82.09
76694;BME280;65625;52.136;5.424;2023-02-01T11:30:41;101877.84;;;7.33;82.15
76694;BME280;65625;52.136;5.424;2023-02-01T11:33:19;101884.47;;;7.44;81.41
76694;BME280;65625;52.136;5.424;2023-02-01T11:35:48;101874.59;;;7.45;81.47
76694;BME280;65625;52.136;5.424;2023-02-01T11:38:35;101876.88;;;7.54;81.69
76694;BME280;65625;52.136;5.424;2023-02-01T11:41:17;101883.25;;;7.70;80.29
76694;BME280;65625;52.136;5.424;2023-02-01T11:43:52;101871.13;;;7.80;79.61
76694;BME280;65625;52.136;5.424;2023-02-01T11:46:23;101863.50;;;7.90;79.76
76694;BME280;65625;52.136;5.424;2023-02-01T11:48:53;101861.78;;;8.26;78.94
76694;BME280;65625;52.136;5.424;2023-02-01T11:51:53;101859.09;;;8.43;78.33
76694;BME280;65625;52.136;5.424;2023-02-01T12:00:59;101854.63;;;8.25;77.48
76694;BME280;65625;52.136;5.424;2023-02-01T12:03:52;101859.31;;;8.38;77.41
76694;BME280;65625;52.136;5.424;2023-02-01T12:26:40;101839.13;;;8.30;75.46
76694;BME280;65625;52.136;5.424;2023-02-01T12:40:44;101847.34;;;8.08;77.13
76694;BME280;65625;52.136;5.424;2023-02-01T12:43:19;101856.38;;;8.07;77.47
76694;BME280;65625;52.136;5.424;2023-02-01T12:45:56;101857.53;;;8.02;78.16
76694;BME280;65625;52.136;5.424;2023-02-01T12:48:38;101860.53;;;7.96;78.41
76694;BME280;65625;52.136;5.424;2023-02-01T12:51:15;101851.03;;;7.89;77.53
76694;BME280;65625;52.136;5.424;2023-02-01T12:53:54;101852.03;;;7.86;77.84
76694;BME280;65625;52.136;5.424;2023-02-01T12:56:36;101854.78;;;7.85;77.46
76694;BME280;65625;52.136;5.424;2023-02-01T13:02:04;101841.34;;;7.85;77.39
76694;BME280;65625;52.136;5.424;2023-02-01T13:07:26;101849.88;;;8.11;78.08
76694;BME280;65625;52.136;5.424;2023-02-01T13:10:11;101848.16;;;8.10;77.17
76694;BME280;65625;52.136;5.424;2023-02-01T13:12:44;101845.91;;;8.01;77.38
76694;BME280;65625;52.136;5.424;2023-02-01T13:15:24;101854.28;;;7.95;77.66
76694;BME280;65625;52.136;5.424;2023-02-01T13:17:54;101840.19;;;7.90;77.96
76694;BME280;65625;52.136;5.424;2023-02-01T13:20:30;101840.56;;;7.83;78.51
76694;BME280;65625;52.136;5.424;2023-02-01T13:23:11;101842.72;;;7.74;77.99
76694;BME280;65625;52.136;5.424;2023-02-01T13:25:47;101859.00;;;7.71;78.35
76694;BME280;65625;52.136;5.424;2023-02-01T13:28:18;101859.16;;;7.68;78.20
76694;BME280;65625;52.136;5.424;2023-02-01T13:31:04;101856.41;;;7.70;78.08
76694;BME280;65625;52.136;5.424;2023-02-01T13:39:28;101866.41;;;7.66;79.17
76694;BME280;65625;52.136;5.424;2023-02-01T13:42:01;101853.63;;;7.71;79.36
76694;BME280;65625;52.136;5.424;2023-02-01T13:44:41;101859.59;;;7.78;79.14
76694;BME280;65625;52.136;5.424;2023-02-01T13:55:39;101847.59;;;8.04;77.96
76694;BME280;65625;52.136;5.424;2023-02-01T14:00:43;101852.47;;;8.14;77.64
76694;BME280;65625;52.136;5.424;2023-02-01T14:03:20;101851.41;;;8.17;78.20
76694;BME280;65625;52.136;5.424;2023-02-01T14:08:20;101859.31;;;8.20;77.11
76694;BME280;65625;52.136;5.424;2023-02-01T14:13:26;101865.66;;;8.19;77.44
76694;BME280;65625;52.136;5.424;2023-02-01T14:21:18;101862.03;;;8.01;78.16
76694;BME280;65625;52.136;5.424;2023-02-01T14:26:25;101857.94;;;7.94;78.40
76694;BME280;65625;52.136;5.424;2023-02-01T14:29:00;101876.75;;;7.94;78.93
76694;BME280;65625;52.136;5.424;2023-02-01T14:31:40;101862.50;;;7.92;78.39
76694;BME280;65625;52.136;5.424;2023-02-01T14:34:15;101851.03;;;7.89;78.87
76694;BME280;65625;52.136;5.424;2023-02-01T14:36:50;101842.16;;;7.87;78.85
76694;BME280;65625;52.136;5.424;2023-02-01T14:39:34;101857.41;;;7.86;78.93
76694;BME280;65625;52.136;5.424;2023-02-01T14:42:05;101844.09;;;7.83;79.38
76694;BME280;65625;52.136;5.424;2023-02-01T14:44:40;101858.59;;;7.81;79.16
76694;BME280;65625;52.136;5.424;2023-02-01T14:52:40;101856.81;;;7.80;79.81
76694;BME280;65625;52.136;5.424;2023-02-01T14:55:15;101849.72;;;7.79;79.98
76694;BME280;65625;52.136;5.424;2023-02-01T14:57:44;101841.97;;;7.72;81.23
76694;BME280;65625;52.136;5.424;2023-02-01T15:00:24;101854.94;;;7.63;82.41
76694;BME280;65625;52.136;5.424;2023-02-01T15:02:52;101848.97;;;7.56;82.06
76694;BME280;65625;52.136;5.424;2023-02-01T15:05:27;101862.50;;;7.55;82.45
76694;BME280;65625;52.136;5.424;2023-02-01T15:08:05;101872.44;;;7.53;82.65